Time;durP1;ratioP1;P1;durP2;ratioP2;P2;SDS_P1;SDS_P2;PMS_P1;PMS_P2;Temp;Humidity;BMP_temperature;BMP_pressure;BME280_temperature;BME280_humidity;BME280_pressure;Samples;Min_cycle;Max_cycle;Signal;HPM_P1;HPM_P2
2022/03/01 00:00:04;;;;;;;4.20;2.92;;;;;;;;;;10617934;27;20499;-51
2022/03/01 00:05:04;;;;;;;3.58;2.47;;;;;;;;;;10618176;27;20611;-52
2022/03/01 00:10:05;;;;;;;3.35;3.05;;;;;;;;;;10618139;27;20071;-52
2022/03/01 00:15:07;;;;;;;5.30;2.83;;;;;;;;;;10618636;27;20419;-51
2022/03/01 00:20:08;;;;;;;4.90;2.88;;;;;;;;;;10617447;27;20031;-53
2022/03/01 00:25:08;;;;;;;4.63;3.17;;;;;;;;;;10617878;27;20027;-50
2022/03/01 00:30:10;;;;;;;4.28;2.72;;;;;;;;;;10618162;27;20015;-54
2022/03/01 00:35:10;;;;;;;3.95;2.65;;;;;;;;;;10617830;27;20034;-51
2022/03/01 00:40:11;;;;;;;3.83;2.70;;;;;;;;;;10617278;27;20513;-52
2022/03/01 00:45:11;;;;;;;7.68;3.00;;;;;;;;;;10617941;27;20030;-52
2022/03/01 00:50:12;;;;;;;5.70;2.57;;;;;;;;;;10614309;27;20106;-53
2022/03/01 00:55:13;;;;;;;4.80;2.97;;;;;;;;;;10614975;28;20436;-53
2022/03/01 01:00:14;;;;;;;4.63;2.55;;;;;;;;;;10616644;27;20974;-52
2022/03/01 01:05:15;;;;;;;5.22;2.78;;;;;;;;;;10617404;28;20024;-52
2022/03/01 01:10:16;;;;;;;6.85;3.00;;;;;;;;;;10620356;27;20080;-51
2022/03/01 01:15:17;;;;;;;6.72;2.85;;;;;;;;;;10626022;27;20076;-51
2022/03/01 01:20:18;;;;;;;5.68;2.67;;;;;;;;;;10626330;27;20072;-52
2022/03/01 01:25:20;;;;;;;3.00;2.63;;;;;;;;;;10625660;27;20023;-53
2022/03/01 01:30:31;;;;;;;6.57;2.47;;;;;;;;;;10625078;27;20106;-55
2022/03/01 01:35:34;;;;;;;4.45;2.60;;;;;;;;;;10624470;27;20073;-53
2022/03/01 01:40:34;;;;;;;4.25;2.67;;;;;;;;;;10625176;27;20122;-54
2022/03/01 01:45:35;;;;;;;3.92;2.50;;;;;;;;;;10624867;27;20106;-53
2022/03/01 01:50:35;;;;;;;5.90;2.60;;;;;;;;;;10625120;27;20023;-55
2022/03/01 01:55:36;;;;;;;4.50;2.85;;;;;;;;;;10621097;27;20497;-54
2022/03/01 02:00:36;;;;;;;3.42;2.47;;;;;;;;;;10624472;27;20023;-55
2022/03/01 02:05:37;;;;;;;5.72;2.70;;;;;;;;;;10620704;27;20083;-51
2022/03/01 02:10:37;;;;;;;4.38;2.67;;;;;;;;;;10623915;27;20027;-54
2022/03/01 02:15:37;;;;;;;4.60;2.20;;;;;;;;;;10623670;27;20023;-55
2022/03/01 02:20:38;;;;;;;4.00;2.70;;;;;;;;;;10623227;27;20476;-52
2022/03/01 02:25:38;;;;;;;3.40;2.10;;;;;;;;;;10622888;27;20436;-54
2022/03/01 02:30:39;;;;;;;2.88;2.28;;;;;;;;;;10623820;27;20026;-54
2022/03/01 02:35:39;;;;;;;5.85;2.80;;;;;;;;;;10623268;27;20563;-54
2022/03/01 02:40:40;;;;;;;3.13;2.17;;;;;;;;;;10622765;27;20138;-49
2022/03/01 02:45:40;;;;;;;3.72;2.15;;;;;;;;;;10622491;27;20438;-50
2022/03/01 02:50:40;;;;;;;2.67;2.03;;;;;;;;;;10622427;27;20034;-48
2022/03/01 02:55:41;;;;;;;3.20;1.93;;;;;;;;;;10622095;27;20023;-53
2022/03/01 03:00:44;;;;;;;3.83;2.30;;;;;;;;;;10621879;27;20475;-50
2022/03/01 03:05:44;;;;;;;3.90;2.28;;;;;;;;;;10618992;27;20019;-52
2022/03/01 03:10:46;;;;;;;2.87;2.00;;;;;;;;;;10618134;27;20027;-49
2022/03/01 03:15:47;;;;;;;4.60;2.10;;;;;;;;;;10621928;27;20253;-49
2022/03/01 03:20:47;;;;;;;3.60;2.45;;;;;;;;;;10621519;27;20027;-49
2022/03/01 03:25:48;;;;;;;2.40;2.20;;;;;;;;;;10620909;27;20458;-51
2022/03/01 03:30:48;;;;;;;3.05;2.05;;;;;;;;;;10621008;27;20499;-51
2022/03/01 03:35:49;;;;;;;3.83;2.00;;;;;;;;;;10620600;27;20386;-55
2022/03/01 03:40:50;;;;;;;2.92;2.30;;;;;;;;;;10620713;27;20034;-50
2022/03/01 03:45:51;;;;;;;2.20;2.00;;;;;;;;;;10620058;27;20486;-51
2022/03/01 03:50:51;;;;;;;2.10;1.90;;;;;;;;;;10619924;27;20026;-49
2022/03/01 03:55:51;;;;;;;4.90;2.17;;;;;;;;;;10619665;27;20523;-50
2022/03/01 04:00:52;;;;;;;4.57;2.30;;;;;;;;;;10619511;27;20038;-50
2022/03/01 04:05:52;;;;;;;2.97;2.40;;;;;;;;;;10619423;27;20034;-51
2022/03/01 04:10:56;;;;;;;2.72;2.30;;;;;;;;;;10612814;27;20590;-53
2022/03/01 04:15:57;;;;;;;2.50;2.28;;;;;;;;;;10619049;27;20111;-49
2022/03/01 04:20:57;;;;;;;3.23;2.00;;;;;;;;;;10619397;27;20114;-54
2022/03/01 04:25:58;;;;;;;2.22;2.00;;;;;;;;;;10618577;27;20027;-53
2022/03/01 04:30:58;;;;;;;3.08;2.20;;;;;;;;;;10618602;27;20019;-48
2022/03/01 04:36:02;;;;;;;3.15;2.00;;;;;;;;;;10618086;27;20290;-54
2022/03/01 04:41:02;;;;;;;3.15;2.20;;;;;;;;;;10618001;27;20023;-53
2022/03/01 04:46:03;;;;;;;3.72;2.13;;;;;;;;;;10617582;27;20050;-49
2022/03/01 04:51:04;;;;;;;2.35;2.08;;;;;;;;;;10618497;27;20019;-54
2022/03/01 04:56:04;;;;;;;3.78;2.08;;;;;;;;;;10617836;27;20454;-53
2022/03/01 05:01:05;;;;;;;2.42;1.98;;;;;;;;;;10617687;28;20051;-50
2022/03/01 05:06:05;;;;;;;2.67;2.22;;;;;;;;;;10618190;27;20442;-50
2022/03/01 05:11:06;;;;;;;3.30;2.33;;;;;;;;;;10614699;28;20462;-55
2022/03/01 05:16:07;;;;;;;2.73;2.00;;;;;;;;;;10614273;27;20031;-50
2022/03/01 05:21:07;;;;;;;3.67;2.20;;;;;;;;;;10617794;28;20503;-55
2022/03/01 05:26:08;;;;;;;2.23;1.80;;;;;;;;;;10617263;27;20459;-54
2022/03/01 05:31:08;;;;;;;3.63;2.17;;;;;;;;;;10617127;28;20455;-53
2022/03/01 05:36:09;;;;;;;2.87;1.83;;;;;;;;;;10616777;27;20132;-56
2022/03/01 05:41:10;;;;;;;4.70;2.20;;;;;;;;;;10617266;28;20479;-59
2022/03/01 05:46:11;;;;;;;6.13;2.38;;;;;;;;;;10616804;27;20034;-61
2022/03/01 05:51:11;;;;;;;3.20;2.22;;;;;;;;;;10616578;28;20068;-64
2022/03/01 05:56:12;;;;;;;3.30;2.70;;;;;;;;;;10617228;27;20098;-62
2022/03/01 06:01:12;;;;;;;3.40;2.30;;;;;;;;;;10624338;27;20765;-59
2022/03/01 06:06:12;;;;;;;6.60;2.37;;;;;;;;;;10623965;27;20957;-66
2022/03/01 06:11:13;;;;;;;8.37;2.30;;;;;;;;;;10623849;27;20463;-62
2022/03/01 06:16:13;;;;;;;2.63;2.27;;;;;;;;;;10620658;27;20062;-60
2022/03/01 06:21:14;;;;;;;4.57;2.33;;;;;;;;;;10623731;27;20087;-69
2022/03/01 06:26:14;;;;;;;5.67;2.50;;;;;;;;;;10620260;27;20102;-61
2022/03/01 06:31:15;;;;;;;14.52;3.50;;;;;;;;;;10623140;27;20035;-62
2022/03/01 06:36:15;;;;;;;16.10;3.90;;;;;;;;;;10622750;27;20126;-61
2022/03/01 06:41:16;;;;;;;10.52;3.78;;;;;;;;;;10622668;27;20455;-61
2022/03/01 06:46:16;;;;;;;9.52;2.95;;;;;;;;;;10622521;27;20027;-61
2022/03/01 06:51:17;;;;;;;4.95;2.75;;;;;;;;;;10622129;27;20450;-60
2022/03/01 06:56:17;;;;;;;15.43;3.53;;;;;;;;;;10622130;27;20094;-61
2022/03/01 07:01:18;;;;;;;8.18;2.88;;;;;;;;;;10622089;27;20459;-60
2022/03/01 07:06:18;;;;;;;12.10;3.67;;;;;;;;;;10621555;27;20030;-60
2022/03/01 07:11:21;;;;;;;15.77;3.43;;;;;;;;;;10619817;27;20436;-71
2022/03/01 07:16:22;;;;;;;7.88;3.03;;;;;;;;;;10620355;27;20444;-61
2022/03/01 07:21:22;;;;;;;11.40;3.40;;;;;;;;;;10621227;27;20069;-61
2022/03/01 07:26:23;;;;;;;13.13;3.60;;;;;;;;;;10617321;27;20111;-60
2022/03/01 07:31:23;;;;;;;7.70;2.93;;;;;;;;;;10616793;27;20072;-61
2022/03/01 07:36:23;;;;;;;12.67;3.47;;;;;;;;;;10620292;27;20031;-61
2022/03/01 07:41:24;;;;;;;8.47;2.93;;;;;;;;;;10619993;27;20031;-61
2022/03/01 07:46:24;;;;;;;18.15;3.53;;;;;;;;;;10619063;27;20590;-60
2022/03/01 07:51:25;;;;;;;7.57;2.85;;;;;;;;;;10619773;27;20031;-60
2022/03/01 07:56:25;;;;;;;8.03;3.23;;;;;;;;;;10619946;27;20023;-60
2022/03/01 08:01:26;;;;;;;11.82;3.75;;;;;;;;;;10619607;27;20895;-61
2022/03/01 08:06:27;;;;;;;11.43;3.28;;;;;;;;;;10618789;27;20535;-60
2022/03/01 08:11:27;;;;;;;8.33;3.20;;;;;;;;;;10618744;27;20080;-60
2022/03/01 08:16:27;;;;;;;11.77;3.70;;;;;;;;;;10617883;27;20471;-60
2022/03/01 08:21:28;;;;;;;15.82;3.58;;;;;;;;;;10617463;27;20027;-60
2022/03/01 08:26:28;;;;;;;9.00;3.23;;;;;;;;;;10617874;27;20485;-61
2022/03/01 08:31:28;;;;;;;6.77;3.57;;;;;;;;;;10613871;27;20035;-61
2022/03/01 08:36:29;;;;;;;7.80;3.67;;;;;;;;;;10617905;27;20508;-60
2022/03/01 08:41:29;;;;;;;7.93;3.97;;;;;;;;;;10615746;27;20129;-61
2022/03/01 08:46:31;;;;;;;14.68;4.20;;;;;;;;;;10617977;27;20134;-60
2022/03/01 08:51:31;;;;;;;8.85;3.40;;;;;;;;;;10618491;27;20117;-60
2022/03/01 08:56:32;;;;;;;4.85;3.00;;;;;;;;;;10618254;27;20028;-60
2022/03/01 09:01:33;;;;;;;5.90;3.67;;;;;;;;;;10599216;28;20038;-60
2022/03/01 09:06:33;;;;;;;9.45;4.68;;;;;;;;;;10618074;27;20532;-60
2022/03/01 09:11:33;;;;;;;7.53;3.78;;;;;;;;;;10617551;28;20019;-60
2022/03/01 09:16:34;;;;;;;9.32;3.13;;;;;;;;;;10617313;27;20475;-60
2022/03/01 09:21:34;;;;;;;6.22;3.75;;;;;;;;;;10617075;28;20091;-61
2022/03/01 09:26:35;;;;;;;8.40;3.23;;;;;;;;;;10616947;27;20019;-60
2022/03/01 09:31:36;;;;;;;5.95;4.13;;;;;;;;;;10618271;27;20427;-60
2022/03/01 09:36:36;;;;;;;6.15;3.70;;;;;;;;;;10621643;27;20447;-60
2022/03/01 09:41:37;;;;;;;5.68;3.55;;;;;;;;;;10624931;27;20039;-60
2022/03/01 09:46:38;;;;;;;5.75;3.70;;;;;;;;;;10603610;27;20023;-60
2022/03/01 09:51:40;;;;;;;5.72;3.38;;;;;;;;;;10625834;27;20027;-59
2022/03/01 09:56:40;;;;;;;8.13;3.55;;;;;;;;;;10624530;27;20428;-60
2022/03/01 10:01:51;;;;;;;5.25;3.22;;;;;;;;;;10624345;27;20023;-60
2022/03/01 10:06:51;;;;;;;6.50;3.70;;;;;;;;;;10624177;27;20102;-61
2022/03/01 10:11:52;;;;;;;6.35;3.10;;;;;;;;;;10624536;27;20438;-60
2022/03/01 10:16:53;;;;;;;4.47;2.70;;;;;;;;;;10605702;27;20037;-60
2022/03/01 10:22:03;;;;;;;5.17;3.07;;;;;;;;;;10623535;27;20019;-60
2022/03/01 10:27:05;;;;;;;4.63;3.22;;;;;;;;;;10604814;27;20542;-60
2022/03/01 10:32:12;;;;;;;7.13;2.97;;;;;;;;;;10623212;27;20444;-60
2022/03/01 10:37:24;;;;;;;3.72;3.20;;;;;;;;;;10622425;27;20143;-60
2022/03/01 10:42:27;;;;;;;8.70;3.35;;;;;;;;;;10619045;27;20095;-60
2022/03/01 10:47:28;;;;;;;5.07;3.25;;;;;;;;;;10622519;27;20111;-60
2022/03/01 10:52:39;;;;;;;6.03;3.20;;;;;;;;;;10619342;27;20092;-60
2022/03/01 10:57:39;;;;;;;6.70;3.10;;;;;;;;;;10621117;27;20019;-60
2022/03/01 11:02:39;;;;;;;5.30;3.77;;;;;;;;;;10603299;27;20166;-60
2022/03/01 11:07:41;;;;;;;6.67;3.13;;;;;;;;;;10621451;27;20118;-60
2022/03/01 11:12:44;;;;;;;4.88;3.17;;;;;;;;;;10602519;27;20064;-60
2022/03/01 11:18:00;;;;;;;4.55;3.45;;;;;;;;;;10602540;27;20054;-61
2022/03/01 11:23:06;;;;;;;3.88;3.03;;;;;;;;;;10603303;27;20019;-60
2022/03/01 11:28:09;;;;;;;5.28;3.05;;;;;;;;;;10602632;27;20034;-60
2022/03/01 11:33:10;;;;;;;3.40;2.97;;;;;;;;;;10621320;27;20062;-60
2022/03/01 11:38:13;;;;;;;5.00;2.90;;;;;;;;;;10620518;27;20556;-60
2022/03/01 11:43:13;;;;;;;4.60;2.58;;;;;;;;;;10620256;27;20027;-60
2022/03/01 11:48:16;;;;;;;5.33;3.13;;;;;;;;;;10619859;27;20080;-60
2022/03/01 11:53:18;;;;;;;4.50;2.90;;;;;;;;;;10616127;27;20466;-60
2022/03/01 11:58:21;;;;;;;3.83;2.97;;;;;;;;;;10618971;27;20034;-60
2022/03/01 12:03:23;;;;;;;3.28;2.53;;;;;;;;;;10616344;27;20023;-60
2022/03/01 12:08:28;;;;;;;3.47;2.63;;;;;;;;;;10619758;27;20080;-60
2022/03/01 12:13:40;;;;;;;4.65;2.92;;;;;;;;;;10620257;27;20293;-60
2022/03/01 12:18:41;;;;;;;3.08;2.53;;;;;;;;;;10618910;27;20114;-60
2022/03/01 12:23:43;;;;;;;3.13;2.60;;;;;;;;;;10618543;27;20034;-60
2022/03/01 12:28:46;;;;;;;5.35;2.97;;;;;;;;;;10600205;27;20027;-60
2022/03/01 12:33:53;;;;;;;3.10;2.65;;;;;;;;;;10617793;27;20194;-60
2022/03/01 12:38:55;;;;;;;4.40;2.85;;;;;;;;;;10617616;27;20078;-61
2022/03/01 12:43:58;;;;;;;5.93;2.80;;;;;;;;;;10618025;27;20019;-60
2022/03/01 12:49:00;;;;;;;4.75;2.70;;;;;;;;;;10617632;27;20565;-60
2022/03/01 12:54:03;;;;;;;3.15;2.60;;;;;;;;;;10617285;27;20352;-60
2022/03/01 12:59:18;;;;;;;4.05;2.78;;;;;;;;;;10617982;27;20023;-60
2022/03/01 13:04:22;;;;;;;3.40;2.70;;;;;;;;;;10614528;28;20023;-60
2022/03/01 13:09:23;;;;;;;4.20;3.08;;;;;;;;;;10622336;27;20389;-61
2022/03/01 13:14:25;;;;;;;5.15;3.22;;;;;;;;;;10625785;27;20569;-60
2022/03/01 13:19:27;;;;;;;3.67;2.50;;;;;;;;;;10625236;27;20496;-60
2022/03/01 13:24:30;;;;;;;5.82;2.85;;;;;;;;;;10625423;27;20118;-60
2022/03/01 13:29:36;;;;;;;9.13;3.30;;;;;;;;;;10626207;27;20024;-60
2022/03/01 13:34:41;;;;;;;3.83;2.60;;;;;;;;;;10625664;27;20474;-60
2022/03/01 13:39:51;;;;;;;4.15;2.45;;;;;;;;;;10625323;27;20047;-60
2022/03/01 13:44:52;;;;;;;4.97;3.15;;;;;;;;;;10606896;27;20023;-61
2022/03/01 13:50:06;;;;;;;4.13;2.75;;;;;;;;;;10624373;27;20378;-60
2022/03/01 13:55:14;;;;;;;3.97;3.15;;;;;;;;;;10604501;27;20027;-60
2022/03/01 14:00:20;;;;;;;3.40;2.60;;;;;;;;;;10619787;27;20432;-60
2022/03/01 14:05:22;;;;;;;11.00;2.88;;;;;;;;;;10619187;27;20105;-60
2022/03/01 14:10:25;;;;;;;5.40;3.17;;;;;;;;;;10622331;27;20077;-60
2022/03/01 14:15:39;;;;;;;7.75;2.72;;;;;;;;;;10620023;27;20102;-60
2022/03/01 14:20:41;;;;;;;8.85;3.10;;;;;;;;;;10622431;27;20030;-60
2022/03/01 14:25:42;;;;;;;4.95;2.70;;;;;;;;;;10623579;27;20109;-60
2022/03/01 14:30:43;;;;;;;7.88;2.85;;;;;;;;;;10620303;27;20027;-60
2022/03/01 14:35:44;;;;;;;5.78;2.75;;;;;;;;;;10619799;27;20035;-60
2022/03/01 14:40:44;;;;;;;4.38;2.80;;;;;;;;;;10622538;27;20442;-61
2022/03/01 14:45:45;;;;;;;5.30;2.92;;;;;;;;;;10599808;27;20090;-60
2022/03/01 14:50:46;;;;;;;4.13;2.78;;;;;;;;;;10616856;27;20122;-60
2022/03/01 14:55:46;;;;;;;8.88;3.00;;;;;;;;;;10620282;27;20027;-61
2022/03/01 15:00:47;;;;;;;5.33;2.47;;;;;;;;;;10618988;27;20046;-60
2022/03/01 15:05:47;;;;;;;6.88;3.50;;;;;;;;;;10621312;27;21077;-60
2022/03/01 15:10:48;;;;;;;7.63;2.92;;;;;;;;;;10621715;27;20019;-61
2022/03/01 15:15:49;;;;;;;5.40;2.63;;;;;;;;;;10617956;27;20076;-60
2022/03/01 15:20:50;;;;;;;5.53;2.80;;;;;;;;;;10617540;27;20083;-60
2022/03/01 15:25:51;;;;;;;5.88;2.80;;;;;;;;;;10620895;27;20246;-60
2022/03/01 15:30:53;;;;;;;6.07;2.95;;;;;;;;;;10620912;27;20254;-60
2022/03/01 15:35:54;;;;;;;6.20;2.80;;;;;;;;;;10620458;27;20089;-60
2022/03/01 15:40:54;;;;;;;5.18;2.55;;;;;;;;;;10621447;27;20114;-60
2022/03/01 15:45:55;;;;;;;3.13;2.83;;;;;;;;;;10620697;27;20473;-60
2022/03/01 15:50:55;;;;;;;5.38;2.90;;;;;;;;;;10621124;27;20023;-60
2022/03/01 15:55:56;;;;;;;4.22;2.90;;;;;;;;;;10620507;27;20020;-60
2022/03/01 16:00:56;;;;;;;3.17;2.67;;;;;;;;;;10618957;27;20055;-60
2022/03/01 16:05:56;;;;;;;4.67;3.00;;;;;;;;;;10619963;27;20519;-60
2022/03/01 16:10:57;;;;;;;5.07;2.57;;;;;;;;;;10619445;27;20155;-60
2022/03/01 16:15:58;;;;;;;5.23;3.33;;;;;;;;;;10619206;27;20019;-60
2022/03/01 16:20:59;;;;;;;7.78;3.30;;;;;;;;;;10616512;27;20757;-60
2022/03/01 16:26:00;;;;;;;7.73;2.50;;;;;;;;;;10618784;27;20266;-59
2022/03/01 16:31:02;;;;;;;3.55;2.80;;;;;;;;;;10615502;27;20463;-60
2022/03/01 16:36:03;;;;;;;5.43;3.08;;;;;;;;;;10599780;27;20053;-60
2022/03/01 16:41:04;;;;;;;3.67;2.80;;;;;;;;;;10617814;27;20031;-61
2022/03/01 16:46:04;;;;;;;6.00;2.95;;;;;;;;;;10618716;27;20019;-60
2022/03/01 16:51:05;;;;;;;6.18;2.67;;;;;;;;;;10618086;27;20486;-60
2022/03/01 16:56:05;;;;;;;6.03;3.00;;;;;;;;;;10617657;27;20019;-60
2022/03/01 17:01:06;;;;;;;7.93;3.10;;;;;;;;;;10616941;28;20035;-60
2022/03/01 17:06:08;;;;;;;4.07;2.77;;;;;;;;;;10617715;27;20031;-60
2022/03/01 17:11:09;;;;;;;4.53;2.88;;;;;;;;;;10617460;28;20462;-60
2022/03/01 17:16:10;;;;;;;3.75;2.80;;;;;;;;;;10618004;27;20107;-60
2022/03/01 17:21:10;;;;;;;4.28;2.65;;;;;;;;;;10617473;28;20394;-60
2022/03/01 17:26:10;;;;;;;4.45;2.95;;;;;;;;;;10616510;27;20530;-60
2022/03/01 17:31:12;;;;;;;3.83;2.70;;;;;;;;;;10614679;28;20108;-60
2022/03/01 17:36:12;;;;;;;6.70;2.92;;;;;;;;;;10613491;27;20491;-60
2022/03/01 17:41:12;;;;;;;7.37;3.20;;;;;;;;;;10617387;28;20050;-60
2022/03/01 17:46:13;;;;;;;5.47;2.93;;;;;;;;;;10617398;27;20030;-56
2022/03/01 17:51:13;;;;;;;4.80;3.07;;;;;;;;;;10617327;27;20423;-52
2022/03/01 17:56:14;;;;;;;7.80;2.80;;;;;;;;;;10624266;27;20523;-56
2022/03/01 18:01:14;;;;;;;5.63;2.85;;;;;;;;;;10624385;27;20030;-50
2022/03/01 18:06:15;;;;;;;5.78;3.13;;;;;;;;;;10624459;27;20069;-54
2022/03/01 18:11:17;;;;;;;8.18;3.85;;;;;;;;;;10624356;27;20114;-54
2022/03/01 18:16:17;;;;;;;9.02;3.60;;;;;;;;;;10623567;27;20047;-53
2022/03/01 18:21:18;;;;;;;10.13;4.70;;;;;;;;;;10623886;27;20080;-49
2022/03/01 18:26:19;;;;;;;7.95;3.75;;;;;;;;;;10624080;27;20412;-52
2022/03/01 18:31:19;;;;;;;10.50;4.20;;;;;;;;;;10623192;27;20035;-54
2022/03/01 18:36:20;;;;;;;9.00;4.15;;;;;;;;;;10618726;27;20258;-56
2022/03/01 18:41:20;;;;;;;10.35;3.70;;;;;;;;;;10622900;27;20058;-56
2022/03/01 18:46:21;;;;;;;8.63;4.03;;;;;;;;;;10619115;27;20024;-55
2022/03/01 18:51:21;;;;;;;6.47;3.67;;;;;;;;;;10621860;27;20507;-52
2022/03/01 18:56:22;;;;;;;21.55;4.30;;;;;;;;;;10617949;27;20072;-52
2022/03/01 19:01:22;;;;;;;19.30;6.43;;;;;;;;;;10621467;27;20400;-55
2022/03/01 19:06:22;;;;;;;17.23;4.38;;;;;;;;;;10620726;27;20540;-55
2022/03/01 19:11:24;;;;;;;9.43;4.35;;;;;;;;;;10620985;27;20424;-54
2022/03/01 19:16:24;;;;;;;14.35;4.20;;;;;;;;;;10620910;27;20466;-55
2022/03/01 19:21:26;;;;;;;12.55;4.30;;;;;;;;;;10620948;27;20042;-53
2022/03/01 19:26:26;;;;;;;12.40;4.07;;;;;;;;;;10620157;27;20478;-53
2022/03/01 19:31:27;;;;;;;8.80;3.70;;;;;;;;;;10619451;27;20110;-56
2022/03/01 19:36:27;;;;;;;10.65;3.65;;;;;;;;;;10601262;27;20464;-55
2022/03/01 19:41:29;;;;;;;11.52;4.35;;;;;;;;;;10620353;27;20027;-59
2022/03/01 19:46:30;;;;;;;8.45;3.60;;;;;;;;;;10613856;27;20053;-55
2022/03/01 19:51:30;;;;;;;8.70;3.60;;;;;;;;;;10619535;27;20498;-55
2022/03/01 19:56:32;;;;;;;7.07;3.60;;;;;;;;;;10619759;27;20439;-55
2022/03/01 20:01:32;;;;;;;15.05;3.88;;;;;;;;;;10619551;27;20030;-54
2022/03/01 20:06:32;;;;;;;9.80;3.45;;;;;;;;;;10616113;27;20031;-55
2022/03/01 20:11:33;;;;;;;6.80;3.28;;;;;;;;;;10615664;27;20083;-56
2022/03/01 20:16:34;;;;;;;15.03;4.13;;;;;;;;;;10617372;27;20030;-53
2022/03/01 20:21:34;;;;;;;11.65;3.50;;;;;;;;;;10617915;27;21000;-53
2022/03/01 20:26:35;;;;;;;11.77;3.40;;;;;;;;;;10617802;27;20015;-55
2022/03/01 20:31:35;;;;;;;11.95;3.65;;;;;;;;;;10618594;27;20367;-57
2022/03/01 20:36:36;;;;;;;12.43;4.00;;;;;;;;;;10600309;27;20043;-54
2022/03/01 20:41:36;;;;;;;9.00;3.57;;;;;;;;;;10618829;27;20031;-55
2022/03/01 20:46:36;;;;;;;11.47;3.57;;;;;;;;;;10615048;27;20448;-55
2022/03/01 20:51:38;;;;;;;12.50;3.67;;;;;;;;;;10614634;27;20524;-55
2022/03/01 20:56:38;;;;;;;13.82;3.75;;;;;;;;;;10617497;27;20026;-55
2022/03/01 21:01:38;;;;;;;7.93;3.47;;;;;;;;;;10616308;27;20037;-55
2022/03/01 21:06:39;;;;;;;13.33;3.90;;;;;;;;;;10615985;27;20435;-56
2022/03/01 21:11:40;;;;;;;7.57;3.23;;;;;;;;;;10616654;28;20432;-54
2022/03/01 21:16:40;;;;;;;15.55;3.95;;;;;;;;;;10616551;27;20023;-53
2022/03/01 21:21:41;;;;;;;6.97;3.08;;;;;;;;;;10598006;28;20109;-55
2022/03/01 21:26:41;;;;;;;7.35;3.45;;;;;;;;;;10617756;27;20023;-56
2022/03/01 21:31:42;;;;;;;6.57;3.40;;;;;;;;;;10623382;27;20027;-54
2022/03/01 21:36:42;;;;;;;6.30;3.75;;;;;;;;;;10624513;27;20397;-49
2022/03/01 21:41:43;;;;;;;16.48;4.75;;;;;;;;;;10623070;27;20443;-52
2022/03/01 21:46:43;;;;;;;11.43;4.38;;;;;;;;;;10624405;27;20023;-48
2022/03/01 21:51:44;;;;;;;9.60;3.77;;;;;;;;;;10620674;27;20172;-51
2022/03/01 21:56:44;;;;;;;8.93;3.88;;;;;;;;;;10620601;27;20438;-53
2022/03/01 22:01:45;;;;;;;14.23;4.20;;;;;;;;;;10622414;27;20022;-50
2022/03/01 22:06:45;;;;;;;14.88;3.78;;;;;;;;;;10605588;27;20910;-55
2022/03/01 22:11:46;;;;;;;8.02;3.95;;;;;;;;;;10624067;27;20075;-50
2022/03/01 22:16:46;;;;;;;13.27;3.90;;;;;;;;;;10623930;27;20035;-53
2022/03/01 22:21:47;;;;;;;7.95;3.97;;;;;;;;;;10605048;27;20031;-54
2022/03/01 22:26:47;;;;;;;18.58;3.55;;;;;;;;;;10623847;27;20243;-50
2022/03/01 22:31:48;;;;;;;12.88;4.13;;;;;;;;;;10623282;27;20104;-54
2022/03/01 22:36:49;;;;;;;9.57;3.90;;;;;;;;;;10622793;27;20390;-50
2022/03/01 22:41:50;;;;;;;8.68;3.50;;;;;;;;;;10622157;27;20023;-48
2022/03/01 22:46:50;;;;;;;9.25;4.05;;;;;;;;;;10622599;27;20027;-52
2022/03/01 22:51:51;;;;;;;9.32;3.70;;;;;;;;;;10622069;27;20208;-53
2022/03/01 22:56:51;;;;;;;8.98;3.53;;;;;;;;;;10618869;27;20446;-50
2022/03/01 23:01:52;;;;;;;10.30;3.88;;;;;;;;;;10618502;27;20485;-49
2022/03/01 23:07:34;;;;;;;12.32;4.07;;;;;;;;;;10603489;27;20026;-48
2022/03/01 23:12:16;;;;;;;8.85;3.92;;;;;;;;;;10609982;27;20039;-52
2022/03/01 23:17:16;;;;;;;8.05;3.30;;;;;;;;;;10603145;27;20023;-51
2022/03/01 23:22:17;;;;;;;11.30;4.03;;;;;;;;;;10620363;27;20031;-50
2022/03/01 23:27:18;;;;;;;6.78;3.25;;;;;;;;;;10620120;27;20150;-54
2022/03/01 23:32:19;;;;;;;7.35;3.28;;;;;;;;;;10619410;27;20027;-53
2022/03/01 23:37:19;;;;;;;8.25;3.72;;;;;;;;;;10600291;27;20043;-50
2022/03/01 23:42:20;;;;;;;9.00;3.47;;;;;;;;;;10616120;27;20042;-52
2022/03/01 23:47:20;;;;;;;8.43;3.73;;;;;;;;;;10618046;27;20019;-53
2022/03/01 23:52:20;;;;;;;16.93;3.60;;;;;;;;;;10617323;27;21025;-49
2022/03/01 23:57:21;;;;;;;11.15;3.53;;;;;;;;;;10618776;27;20359;-49
